createdAt,value
2018-01-06T00:01:41.779Z,3.33
2018-01-06T00:04:10.096Z,3.13
2018-01-06T00:06:37.611Z,3.03
2018-01-06T00:09:05.848Z,3.67
2018-01-06T00:11:33.372Z,3.93
2018-01-06T00:14:00.913Z,3.57
2018-01-06T00:16:29.189Z,3.10
2018-01-06T00:18:57.475Z,3.03
2018-01-06T00:21:25.754Z,3.13
2018-01-06T00:23:53.278Z,3.40
2018-01-06T00:26:20.813Z,3.03
2018-01-06T00:28:48.333Z,2.60
2018-01-06T00:31:15.851Z,3.17
2018-01-06T00:33:43.370Z,3.57
2018-01-06T00:36:10.883Z,2.90
2018-01-06T00:38:38.392Z,2.97
2018-01-06T00:41:05.925Z,2.93
2018-01-06T00:43:33.451Z,2.50
2018-01-06T00:46:00.989Z,2.87
2018-01-06T00:48:28.483Z,3.90
2018-01-06T00:50:55.972Z,3.83
2018-01-06T00:53:23.454Z,3.67
2018-01-06T00:55:51.210Z,3.00
2018-01-06T00:58:18.689Z,2.77
2018-01-06T01:00:46.158Z,2.70
2018-01-06T01:03:13.647Z,2.93
2018-01-06T01:05:41.899Z,2.70
2018-01-06T01:08:09.414Z,3.40
2018-01-06T01:10:36.910Z,3.10
2018-01-06T01:13:04.386Z,3.33
2018-01-06T01:15:31.857Z,2.87
2018-01-06T01:18:00.104Z,2.57
2018-01-06T01:20:27.585Z,2.97
2018-01-06T01:22:55.064Z,3.83
2018-01-06T01:25:23.314Z,3.00
2018-01-06T01:27:50.794Z,2.57
2018-01-06T01:30:19.037Z,3.37
2018-01-06T01:32:46.519Z,2.87
2018-01-06T01:35:14.765Z,2.37
2018-01-06T01:37:42.232Z,2.97
2018-01-06T01:40:09.957Z,2.67
2018-01-06T01:42:37.451Z,2.90
2018-01-06T01:45:04.912Z,2.87
2018-01-06T01:47:32.388Z,2.97
2018-01-06T01:50:00.630Z,2.40
2018-01-06T01:52:28.866Z,2.50
2018-01-06T01:54:56.324Z,2.37
2018-01-06T01:57:23.806Z,2.33
2018-01-06T01:59:51.276Z,3.03
2018-01-06T02:02:18.769Z,2.83
2018-01-06T02:04:46.237Z,2.57
2018-01-06T02:07:14.484Z,2.13
2018-01-06T02:09:42.053Z,2.10
2018-01-06T02:12:09.521Z,2.60
2018-01-06T02:14:36.992Z,2.00
2018-01-06T02:17:05.246Z,2.33
2018-01-06T02:19:32.735Z,2.70
2018-01-06T02:22:01.903Z,2.33
2018-01-06T02:24:29.404Z,2.73
2018-01-06T02:26:56.883Z,2.17
2018-01-06T02:29:24.345Z,2.20
2018-01-06T02:31:52.110Z,2.50
2018-01-06T02:34:19.590Z,2.70
2018-01-06T02:36:47.083Z,2.00
2018-01-06T02:39:15.340Z,2.50
2018-01-06T02:41:44.430Z,1.90
2018-01-06T02:44:11.893Z,2.10
2018-01-06T02:46:39.381Z,2.00
2018-01-06T02:49:07.627Z,3.73
2018-01-06T02:51:35.102Z,2.33
2018-01-06T02:54:03.359Z,2.13
2018-01-06T02:56:30.842Z,2.17
2018-01-06T02:58:59.089Z,2.77
2018-01-06T03:01:26.579Z,2.23
2018-01-06T03:03:54.865Z,2.30
2018-01-06T03:06:23.096Z,2.10
2018-01-06T03:08:50.598Z,2.67
2018-01-06T03:11:18.846Z,4.00
2018-01-06T03:13:46.313Z,2.30
2018-01-06T03:16:13.789Z,2.17
2018-01-06T03:18:42.036Z,2.30
2018-01-06T03:21:09.513Z,2.47
2018-01-06T03:23:37.745Z,2.30
2018-01-06T03:26:05.220Z,2.30
2018-01-06T03:28:32.719Z,3.50
2018-01-06T03:31:00.992Z,2.93
2018-01-06T03:33:29.237Z,2.47
2018-01-06T03:35:56.702Z,2.40
2018-01-06T03:38:24.191Z,2.77
2018-01-06T03:40:52.425Z,2.40
2018-01-06T03:43:19.916Z,2.50
2018-01-06T03:45:54.089Z,2.27
2018-01-06T03:48:21.578Z,2.33
2018-01-06T03:50:49.048Z,3.13
2018-01-06T03:53:17.285Z,2.47
2018-01-06T03:55:44.757Z,2.60
2018-01-06T03:58:12.233Z,2.50
2018-01-06T04:00:40.473Z,2.60
2018-01-06T04:03:07.960Z,3.20
2018-01-06T04:05:35.440Z,2.60
2018-01-06T04:08:03.680Z,2.40
2018-01-06T04:10:31.917Z,2.83
2018-01-06T04:12:59.398Z,3.10
2018-01-06T04:15:26.882Z,2.50
2018-01-06T04:17:54.349Z,2.77
2018-01-06T04:20:21.823Z,2.63
2018-01-06T04:22:50.071Z,5.43
2018-01-06T04:25:17.533Z,3.07
2018-01-06T04:27:45.009Z,3.47
2018-01-06T04:30:13.259Z,2.97
2018-01-06T04:32:40.743Z,2.77
2018-01-06T04:35:08.985Z,4.23
2018-01-06T04:37:36.737Z,3.30
2018-01-06T04:40:04.215Z,5.13
2018-01-06T04:42:31.688Z,3.43
2018-01-06T04:44:59.176Z,6.70
2018-01-06T04:47:27.438Z,47.53
2018-01-06T04:49:55.673Z,3.33
2018-01-06T04:52:23.150Z,3.23
2018-01-06T04:54:50.630Z,2.63
2018-01-06T04:57:18.093Z,2.37
2018-01-06T04:59:46.342Z,2.40
2018-01-06T05:02:13.818Z,2.67
2018-01-06T05:04:41.292Z,2.70
2018-01-06T05:07:09.539Z,2.93
2018-01-06T05:09:37.023Z,2.80
2018-01-06T05:12:05.260Z,2.93
2018-01-06T05:14:32.757Z,2.93
2018-01-06T05:17:01.006Z,3.03
2018-01-06T05:19:28.487Z,3.20
2018-01-06T05:21:56.742Z,3.37
2018-01-06T05:24:24.213Z,2.90
2018-01-06T05:26:51.684Z,2.93
2018-01-06T05:29:19.923Z,2.90
2018-01-06T05:31:47.401Z,3.10
2018-01-06T05:34:14.864Z,2.73
2018-01-06T05:36:42.351Z,3.10
2018-01-06T05:39:09.839Z,3.33
2018-01-06T05:41:37.318Z,2.83
2018-01-06T05:44:04.796Z,2.87
2018-01-06T05:46:32.276Z,2.70
2018-01-06T05:49:00.518Z,3.33
2018-01-06T05:51:27.981Z,2.93
2018-01-06T05:53:55.460Z,2.57
2018-01-06T05:56:23.702Z,2.80
2018-01-06T05:58:51.204Z,5.37
2018-01-06T06:01:19.446Z,3.13
2018-01-06T06:03:46.908Z,3.30
2018-01-06T06:06:14.385Z,3.70
2018-01-06T06:08:41.875Z,3.80
2018-01-06T06:11:09.357Z,2.90
2018-01-06T06:13:37.602Z,2.87
2018-01-06T06:16:05.077Z,3.57
2018-01-06T06:18:32.549Z,3.20
2018-01-06T06:21:00.028Z,2.93
2018-01-06T06:23:27.519Z,3.37
2018-01-06T06:25:55.758Z,3.17
2018-01-06T06:28:23.251Z,3.47
2018-01-06T06:30:51.495Z,3.33
2018-01-06T06:33:18.978Z,3.80
2018-01-06T06:35:47.227Z,3.93
2018-01-06T06:38:14.715Z,3.40
2018-01-06T06:40:43.242Z,3.90
2018-01-06T06:43:10.736Z,4.17
2018-01-06T06:45:38.218Z,3.73
2018-01-06T06:48:06.472Z,3.67
2018-01-06T06:50:33.949Z,3.50
2018-01-06T06:53:02.198Z,3.43
2018-01-06T06:55:29.677Z,3.30
2018-01-06T06:57:57.144Z,3.33
2018-01-06T07:00:25.671Z,4.10
2018-01-06T07:02:53.152Z,3.50
2018-01-06T07:05:20.634Z,3.70
2018-01-06T07:07:48.102Z,3.97
2018-01-06T07:10:16.349Z,3.67
2018-01-06T07:12:44.083Z,4.53
2018-01-06T07:15:11.570Z,4.73
2018-01-06T07:17:39.041Z,5.10
2018-01-06T07:20:06.767Z,4.83
2018-01-06T07:22:34.274Z,5.50
2018-01-06T07:25:01.741Z,5.13
2018-01-06T07:27:30.000Z,4.67
2018-01-06T07:29:57.475Z,5.20
2018-01-06T07:32:24.949Z,5.63
2018-01-06T07:34:53.181Z,5.40
2018-01-06T07:37:20.671Z,4.33
2018-01-06T07:39:48.915Z,5.83
2018-01-06T07:42:16.398Z,5.23
2018-01-06T07:44:43.875Z,5.50
2018-01-06T07:47:12.388Z,6.73
2018-01-06T07:49:39.865Z,5.07
2018-01-06T07:52:07.351Z,5.03
2018-01-06T07:54:34.825Z,4.60
2018-01-06T07:57:03.086Z,3.90
2018-01-06T07:59:30.570Z,5.00
2018-01-06T08:01:58.818Z,4.00
2018-01-06T08:04:26.300Z,4.00
2018-01-06T08:06:54.546Z,3.53
2018-01-06T08:09:22.034Z,3.50
2018-01-06T08:11:50.278Z,4.27
2018-01-06T08:14:17.745Z,3.87
2018-01-06T08:16:45.235Z,4.37
2018-01-06T08:19:13.465Z,3.93
2018-01-06T08:21:40.936Z,4.93
2018-01-06T08:24:08.409Z,5.13
2018-01-06T08:26:35.886Z,3.63
2018-01-06T08:29:04.127Z,4.37
2018-01-06T08:31:31.609Z,4.40
2018-01-06T08:33:59.848Z,3.87
2018-01-06T08:36:27.667Z,4.37
2018-01-06T08:38:55.156Z,3.80
2018-01-06T08:41:22.630Z,4.03
2018-01-06T08:43:50.374Z,4.70
2018-01-06T08:46:17.855Z,4.40
2018-01-06T08:48:45.595Z,4.07
2018-01-06T08:51:13.075Z,4.80
2018-01-06T08:53:40.605Z,5.53
2018-01-06T08:56:08.043Z,4.60
2018-01-06T08:58:36.281Z,5.07
2018-01-06T09:01:03.774Z,5.80
2018-01-06T09:03:31.256Z,4.53
2018-01-06T09:05:58.721Z,4.20
2018-01-06T09:08:26.210Z,4.63
2018-01-06T09:10:53.699Z,4.70
2018-01-06T09:13:21.951Z,5.33
2018-01-06T09:15:49.430Z,4.13
2018-01-06T09:18:17.660Z,3.73
2018-01-06T09:20:45.141Z,4.07
2018-01-06T09:23:12.621Z,4.43
2018-01-06T09:25:40.093Z,4.10
2018-01-06T09:28:08.346Z,4.53
2018-01-06T09:30:35.809Z,4.63
2018-01-06T09:33:03.298Z,3.60
2018-01-06T09:35:30.779Z,4.43
2018-01-06T09:37:58.268Z,4.20
2018-01-06T09:40:25.749Z,4.00
2018-01-06T09:42:53.266Z,4.27
2018-01-06T09:45:20.715Z,4.13
2018-01-06T09:47:48.198Z,4.20
2018-01-06T09:50:15.664Z,4.20
2018-01-06T09:52:43.132Z,4.10
2018-01-06T09:55:10.615Z,3.80
2018-01-06T09:57:38.849Z,6.20
2018-01-06T10:00:06.351Z,8.33
2018-01-06T10:02:34.593Z,9.20
2018-01-06T10:05:02.087Z,8.57
2018-01-06T10:07:29.567Z,6.80
2018-01-06T10:09:57.049Z,6.60
2018-01-06T10:12:24.530Z,6.30
2018-01-06T10:14:52.265Z,6.50
2018-01-06T10:17:19.741Z,6.50
2018-01-06T10:19:47.215Z,4.53
2018-01-06T10:22:14.932Z,4.60
2018-01-06T10:24:42.400Z,4.40
2018-01-06T10:27:09.876Z,4.17
2018-01-06T10:29:37.345Z,4.00
2018-01-06T10:32:04.830Z,4.80
2018-01-06T10:34:33.064Z,3.70
2018-01-06T10:37:00.559Z,4.87
2018-01-06T10:39:28.812Z,4.10
2018-01-06T10:41:56.297Z,4.77
2018-01-06T10:44:24.530Z,5.07
2018-01-06T10:46:52.001Z,3.77
2018-01-06T10:49:19.474Z,4.27
2018-01-06T10:51:46.936Z,5.87
2018-01-06T10:54:14.431Z,5.07
2018-01-06T10:56:42.210Z,5.43
2018-01-06T10:59:09.686Z,4.70
2018-01-06T11:01:42.833Z,5.23
2018-01-06T11:04:11.078Z,4.43
2018-01-06T11:06:38.558Z,4.80
2018-01-06T11:09:06.819Z,4.60
2018-01-06T11:11:34.308Z,4.57
2018-01-06T11:14:01.785Z,4.33
2018-01-06T11:16:29.250Z,5.53
2018-01-06T11:18:56.733Z,5.27
2018-01-06T11:21:24.471Z,5.23
2018-01-06T11:23:51.971Z,4.40
2018-01-06T11:26:19.451Z,4.47
2018-01-06T11:28:47.728Z,4.90
2018-01-06T11:31:15.200Z,4.47
2018-01-06T11:33:42.686Z,4.77
2018-01-06T11:36:10.172Z,5.17
2018-01-06T11:38:37.651Z,4.70
2018-01-06T11:41:05.139Z,4.67
2018-01-06T11:43:32.609Z,5.17
2018-01-06T11:46:00.103Z,4.97
2018-01-06T11:48:27.585Z,4.87
2018-01-06T11:50:55.831Z,4.67
2018-01-06T11:53:23.332Z,5.20
2018-01-06T11:55:51.574Z,4.70
2018-01-06T11:58:19.063Z,5.07
2018-01-06T12:00:47.297Z,4.53
2018-01-06T12:03:14.794Z,5.07
2018-01-06T12:05:42.270Z,5.40
2018-01-06T12:08:10.531Z,5.80
2018-01-06T12:10:38.829Z,6.87
2018-01-06T12:13:06.279Z,6.90
2018-01-06T12:15:34.517Z,6.13
2018-01-06T12:18:01.999Z,5.93
2018-01-06T12:20:30.274Z,5.30
2018-01-06T12:22:57.749Z,4.90
2018-01-06T12:25:25.242Z,4.50
2018-01-06T12:27:52.753Z,4.23
2018-01-06T12:30:20.457Z,3.63
2018-01-06T12:32:47.935Z,3.63
2018-01-06T12:35:15.405Z,4.00
2018-01-06T12:37:42.884Z,4.00
2018-01-06T12:40:10.373Z,4.10
2018-01-06T12:42:37.863Z,4.53
2018-01-06T12:45:05.346Z,5.33
2018-01-06T12:47:32.847Z,5.50
2018-01-06T12:50:00.331Z,6.03
2018-01-06T12:52:27.793Z,5.83
2018-01-06T12:54:55.274Z,5.63
2018-01-06T12:57:22.745Z,5.90
2018-01-06T12:59:50.229Z,4.90
2018-01-06T13:02:18.475Z,5.80
2018-01-06T13:04:46.733Z,4.53
2018-01-06T13:07:14.206Z,5.37
2018-01-06T13:09:41.697Z,5.07
2018-01-06T13:12:09.938Z,5.63
2018-01-06T13:14:37.426Z,5.30
2018-01-06T13:17:05.668Z,6.23
2018-01-06T13:19:33.155Z,6.87
2018-01-06T13:22:00.675Z,11.30
2018-01-06T13:24:28.159Z,5.40
2018-01-06T13:26:55.647Z,4.93
2018-01-06T13:29:23.890Z,5.67
2018-01-06T13:31:51.375Z,4.90
2018-01-06T13:34:19.617Z,5.27
2018-01-06T13:36:47.097Z,5.40
2018-01-06T13:39:14.581Z,5.00
2018-01-06T13:41:42.808Z,4.53
2018-01-06T13:44:10.288Z,4.50
2018-01-06T13:46:37.767Z,6.23
2018-01-06T13:49:05.564Z,9.83
2018-01-06T13:51:33.090Z,6.10
2018-01-06T13:54:01.351Z,5.30
2018-01-06T13:56:28.831Z,23.87
2018-01-06T13:58:56.318Z,25.93
2018-01-06T14:01:23.785Z,7.23
2018-01-06T14:03:51.654Z,5.47
2018-01-06T14:06:19.124Z,4.93
2018-01-06T14:08:46.609Z,5.83
2018-01-06T14:11:14.094Z,13.33
2018-01-06T14:13:41.569Z,7.60
2018-01-06T14:16:09.059Z,7.70
2018-01-06T14:18:36.584Z,6.90
2018-01-06T14:21:04.900Z,6.67
2018-01-06T14:23:32.370Z,8.10
2018-01-06T14:25:59.851Z,6.40
2018-01-06T14:28:28.099Z,6.30
2018-01-06T14:30:55.666Z,6.43
2018-01-06T14:33:23.140Z,5.33
2018-01-06T14:35:50.644Z,5.30
2018-01-06T14:38:18.128Z,5.27
2018-01-06T14:40:45.610Z,5.47
2018-01-06T14:43:13.092Z,4.37
2018-01-06T14:45:41.366Z,5.07
2018-01-06T14:48:09.639Z,5.10
2018-01-06T14:50:37.878Z,4.63
2018-01-06T14:53:05.413Z,4.77
2018-01-06T14:55:32.896Z,5.40
2018-01-06T14:58:00.379Z,5.43
2018-01-06T15:00:27.890Z,5.90
2018-01-06T15:02:55.361Z,6.37
2018-01-06T15:05:22.848Z,6.27
2018-01-06T15:07:50.321Z,11.63
2018-01-06T15:10:18.581Z,11.83
2018-01-06T15:12:46.060Z,11.37
2018-01-06T15:15:14.322Z,10.43
2018-01-06T15:17:41.807Z,8.70
2018-01-06T15:20:09.272Z,10.90
2018-01-06T15:22:36.758Z,9.57
2018-01-06T15:25:04.280Z,9.97
2018-01-06T15:27:31.800Z,8.50
2018-01-06T15:29:59.272Z,8.33
2018-01-06T15:32:26.750Z,7.97
2018-01-06T15:34:55.028Z,7.13
2018-01-06T15:37:23.333Z,7.93
2018-01-06T15:39:50.823Z,8.63
2018-01-06T15:42:18.307Z,9.03
2018-01-06T15:44:45.805Z,9.77
2018-01-06T15:47:13.294Z,8.93
2018-01-06T15:49:40.782Z,9.23
2018-01-06T15:52:08.252Z,8.07
2018-01-06T15:54:36.515Z,9.00
2018-01-06T15:57:04.038Z,9.13
2018-01-06T15:59:31.532Z,9.40
2018-01-06T16:01:59.016Z,9.73
2018-01-06T16:04:26.520Z,10.30
2018-01-06T16:06:54.071Z,7.90
2018-01-06T16:09:22.304Z,7.97
2018-01-06T16:11:50.596Z,7.83
2018-01-06T16:14:18.067Z,8.60
2018-01-06T16:16:45.541Z,8.37
2018-01-06T16:19:13.009Z,7.63
2018-01-06T16:21:40.527Z,8.40
2018-01-06T16:24:08.003Z,8.30
2018-01-06T16:26:35.487Z,8.07
2018-01-06T16:29:02.967Z,8.00
2018-01-06T16:31:30.458Z,8.37
2018-01-06T16:33:57.925Z,8.53
2018-01-06T16:36:25.449Z,8.00
2018-01-06T16:38:52.970Z,8.00
2018-01-06T16:41:20.434Z,8.07
2018-01-06T16:43:47.960Z,7.33
2018-01-06T16:46:15.443Z,8.80
2018-01-06T16:48:42.922Z,8.57
2018-01-06T16:51:10.403Z,8.17
2018-01-06T16:53:37.887Z,7.93
2018-01-06T16:56:05.368Z,8.10
2018-01-06T16:58:32.896Z,8.73
2018-01-06T17:01:01.130Z,7.93
2018-01-06T17:03:28.623Z,9.37
2018-01-06T17:05:56.872Z,8.10
2018-01-06T17:08:24.351Z,8.67
2018-01-06T17:10:51.888Z,8.67
2018-01-06T17:13:19.367Z,10.17
2018-01-06T17:15:46.906Z,9.70
2018-01-06T17:18:14.486Z,9.10
2018-01-06T17:20:41.944Z,21.20
2018-01-06T17:23:09.474Z,17.37
2018-01-06T17:25:37.010Z,10.13
2018-01-06T17:28:04.500Z,8.67
2018-01-06T17:30:32.044Z,9.37
2018-01-06T17:32:59.550Z,9.23
2018-01-06T17:35:27.793Z,9.10
2018-01-06T17:37:55.329Z,10.43
2018-01-06T17:40:22.852Z,10.83
2018-01-06T17:42:51.105Z,10.20
2018-01-06T17:45:18.629Z,11.00
2018-01-06T17:47:46.100Z,12.20
2018-01-06T17:50:14.342Z,11.20
2018-01-06T17:52:41.863Z,10.80
2018-01-06T17:55:09.337Z,10.83
2018-01-06T17:57:37.585Z,10.20
2018-01-06T18:00:05.054Z,11.27
2018-01-06T18:02:32.546Z,9.50
2018-01-06T18:05:00.022Z,10.50
2018-01-06T18:07:27.562Z,9.70
2018-01-06T18:09:55.045Z,10.03
2018-01-06T18:12:22.514Z,10.90
2018-01-06T18:14:50.056Z,10.47
2018-01-06T18:17:17.525Z,10.30
2018-01-06T18:19:45.063Z,10.70
2018-01-06T18:22:12.528Z,9.97
2018-01-06T18:24:40.008Z,11.93
2018-01-06T18:27:07.544Z,10.87
2018-01-06T18:29:35.058Z,10.07
2018-01-06T18:32:02.542Z,12.03
2018-01-06T18:34:30.789Z,11.17
2018-01-06T18:36:58.287Z,9.47
2018-01-06T18:39:25.772Z,11.60
2018-01-06T18:41:53.305Z,10.77
2018-01-06T18:44:20.838Z,11.03
2018-01-06T18:46:48.336Z,10.87
2018-01-06T18:49:15.870Z,11.37
2018-01-06T18:51:44.165Z,12.50
2018-01-06T18:54:11.642Z,9.73
2018-01-06T18:56:39.119Z,8.80
2018-01-06T18:59:06.644Z,10.47
2018-01-06T19:01:34.160Z,9.83
2018-01-06T19:04:01.705Z,10.07
2018-01-06T19:06:29.214Z,10.90
2018-01-06T19:08:56.744Z,10.77
2018-01-06T19:11:24.255Z,12.20
2018-01-06T19:13:51.777Z,10.70
2018-01-06T19:16:20.022Z,11.90
2018-01-06T19:18:47.547Z,10.67
2018-01-06T19:21:15.080Z,12.17
2018-01-06T19:23:42.634Z,11.53
2018-01-06T19:26:10.932Z,12.27
2018-01-06T19:28:38.467Z,13.40
2018-01-06T19:31:06.768Z,13.83
2018-01-06T19:33:34.319Z,14.10
2018-01-06T19:36:02.626Z,13.57
2018-01-06T19:38:30.150Z,13.47
2018-01-06T19:40:58.440Z,14.10
2018-01-06T19:43:26.242Z,13.33
2018-01-06T19:45:53.769Z,14.20
2018-01-06T19:48:21.297Z,14.43
2018-01-06T19:50:48.842Z,14.27
2018-01-06T19:53:16.687Z,13.77
2018-01-06T19:55:44.221Z,13.50
2018-01-06T19:58:11.770Z,13.43
2018-01-06T20:00:39.302Z,15.30
2018-01-06T20:03:06.816Z,13.17
2018-01-06T20:05:34.362Z,13.97
2018-01-06T20:08:01.936Z,13.63
2018-01-06T20:10:29.456Z,12.90
2018-01-06T20:12:57.740Z,13.20
2018-01-06T20:15:26.053Z,14.17
2018-01-06T20:17:53.590Z,14.00
2018-01-06T20:20:21.136Z,15.20
2018-01-06T20:22:49.430Z,15.70
2018-01-06T20:25:16.991Z,15.30
2018-01-06T20:27:44.521Z,18.23
2018-01-06T20:30:12.829Z,20.27
2018-01-06T20:32:40.366Z,24.77
2018-01-06T20:35:07.909Z,21.27
2018-01-06T20:37:35.423Z,20.73
2018-01-06T20:40:02.948Z,21.87
2018-01-06T20:42:31.261Z,22.20
2018-01-06T20:44:58.807Z,23.47
2018-01-06T20:47:26.354Z,22.73
2018-01-06T20:49:53.884Z,22.53
2018-01-06T20:52:21.414Z,22.50
2018-01-06T20:54:48.950Z,24.07
2018-01-06T20:57:16.469Z,23.70
2018-01-06T20:59:44.010Z,24.83
2018-01-06T21:02:11.533Z,23.87
2018-01-06T21:04:39.056Z,24.07
2018-01-06T21:07:07.474Z,24.70
2018-01-06T21:09:35.014Z,26.10
2018-01-06T21:12:02.534Z,26.90
2018-01-06T21:14:30.079Z,27.63
2018-01-06T21:16:57.602Z,29.47
2018-01-06T21:19:25.128Z,27.97
2018-01-06T21:21:53.428Z,29.27
2018-01-06T21:24:20.960Z,27.63
2018-01-06T21:26:48.484Z,27.87
2018-01-06T21:32:31.927Z,29.63
2018-01-06T21:34:59.453Z,29.83
2018-01-06T21:37:27.731Z,30.43
2018-01-06T21:39:56.043Z,29.37
2018-01-06T21:42:23.564Z,33.43
2018-01-06T21:44:51.934Z,30.00
2018-01-06T21:47:20.247Z,27.73
2018-01-06T21:53:01.656Z,33.93
2018-01-06T21:55:29.182Z,32.37
2018-01-06T21:57:57.471Z,34.53
2018-01-06T22:00:25.752Z,32.80
2018-01-06T22:02:54.034Z,33.03
2018-01-06T22:05:21.543Z,34.83
2018-01-06T22:07:49.073Z,33.60
2018-01-06T22:10:16.641Z,32.17
2018-01-06T22:12:44.144Z,32.83
2018-01-06T22:15:11.660Z,34.23
2018-01-06T22:17:39.198Z,33.63
2018-01-06T22:20:06.729Z,33.07
2018-01-06T22:22:35.041Z,34.53
2018-01-06T22:25:02.579Z,36.07
2018-01-06T22:27:30.105Z,34.60
2018-01-06T22:29:57.945Z,30.20
2018-01-06T22:32:25.479Z,33.47
2018-01-06T22:34:53.012Z,33.70
2018-01-06T22:37:21.324Z,37.80
2018-01-06T22:39:48.851Z,35.03
2018-01-06T22:42:17.137Z,35.43
2018-01-06T22:44:45.676Z,35.80
2018-01-06T22:47:13.197Z,33.07
2018-01-06T22:49:40.721Z,33.60
2018-01-06T22:52:08.252Z,33.70
2018-01-06T22:54:35.768Z,33.10
2018-01-06T22:57:03.300Z,33.10
2018-01-06T22:59:30.838Z,33.23
2018-01-06T23:01:58.378Z,32.10
2018-01-06T23:04:26.679Z,32.33
2018-01-06T23:06:54.207Z,32.53
2018-01-06T23:09:21.746Z,32.97
2018-01-06T23:11:49.295Z,31.70
2018-01-06T23:14:17.582Z,32.50
2018-01-06T23:16:45.106Z,31.80
2018-01-06T23:19:12.648Z,30.40
2018-01-06T23:21:40.169Z,29.57
2018-01-06T23:24:07.714Z,27.47
2018-01-06T23:26:35.250Z,30.60
2018-01-06T23:29:02.787Z,29.80
2018-01-06T23:31:30.640Z,30.10
2018-01-06T23:33:58.168Z,30.43
2018-01-06T23:36:25.689Z,28.30
2018-01-06T23:38:53.225Z,30.63
2018-01-06T23:41:20.738Z,30.17
2018-01-06T23:43:49.054Z,26.60
2018-01-06T23:46:16.577Z,28.53
2018-01-06T23:48:44.875Z,28.40
2018-01-06T23:51:12.426Z,28.77
2018-01-06T23:53:39.970Z,27.70
2018-01-06T23:56:08.270Z,29.30
2018-01-06T23:58:35.788Z,28.00
